Portada
METAR-TAF:

METAR-TAF

Aeropuertos :

Shahrekord, Irán

latitud: 32-20N, longitud: 050-51E, altitud: 2078 m

Observación

El informe se hizo hace 1 hora y 2 minutos, a las 12:00 UTC
Viento 17 kt del suroeste
Temperatura 16°C
Humedad 15%
Presión 1021 hPa
Visibilidad 10 km o más
sin nubes por debajo de 1500 m y sin presencia de cumulonimbus.

METAR: OIFS 041200Z 23017KT CAVOK 16/M11 Q1021

Hora: 17:32 (13:02 UTC)


TAF: falta

Observaciones y pronósticos meteorológicos de más de 4000 aeropuertos (mensajes METAR y TAF).

Los puntos amarillos y rojos representan las estaciones disponibles.

Ponga el ratón en el punto deseado para ver el nombre de la estación.

Haga clic para ver las observaciones y los pronósticos meteorológicos.

Para cambiar el mapa : haga clic en los botones verdes con una cruz de color negro para hacer un zoom, en el botón verde con un guión para alejar o en las flechas verdes para mapas adyacentes.


METAR-TAF: